sensor_id;sensor_type;location;lat;lon;timestamp;P1;durP1;ratioP1;P2;durP2;ratioP2
12151;SDS011;6139;51.274;7.128;2023-08-31T00:00:03;4.90;;;3.40;;
12151;SDS011;6139;51.274;7.128;2023-08-31T00:01:07;4.97;;;3.53;;
12151;SDS011;6139;51.274;7.128;2023-08-31T00:02:09;6.28;;;3.25;;
12151;SDS011;6139;51.274;7.128;2023-08-31T00:03:11;8.45;;;4.15;;
12151;SDS011;6139;51.274;7.128;2023-08-31T00:04:14;4.93;;;3.70;;
12151;SDS011;6139;51.274;7.128;2023-08-31T00:05:15;6.93;;;3.67;;
12151;SDS011;6139;51.274;7.128;2023-08-31T00:06:17;6.25;;;3.55;;
12151;SDS011;6139;51.274;7.128;2023-08-31T00:07:18;5.50;;;3.33;;
12151;SDS011;6139;51.274;7.128;2023-08-31T00:08:20;10.13;;;3.40;;
12151;SDS011;6139;51.274;7.128;2023-08-31T00:09:22;5.28;;;3.63;;
12151;SDS011;6139;51.274;7.128;2023-08-31T00:10:24;6.78;;;3.55;;
12151;SDS011;6139;51.274;7.128;2023-08-31T00:11:26;8.90;;;3.75;;
12151;SDS011;6139;51.274;7.128;2023-08-31T00:12:27;5.82;;;3.50;;
12151;SDS011;6139;51.274;7.128;2023-08-31T00:13:30;6.45;;;3.50;;
12151;SDS011;6139;51.274;7.128;2023-08-31T00:14:31;3.83;;;3.20;;
12151;SDS011;6139;51.274;7.128;2023-08-31T00:15:33;4.63;;;3.20;;
12151;SDS011;6139;51.274;7.128;2023-08-31T00:16:36;7.53;;;3.78;;
12151;SDS011;6139;51.274;7.128;2023-08-31T00:17:38;4.95;;;3.25;;
12151;SDS011;6139;51.274;7.128;2023-08-31T00:18:39;5.30;;;3.85;;
12151;SDS011;6139;51.274;7.128;2023-08-31T00:19:41;6.00;;;3.47;;
12151;SDS011;6139;51.274;7.128;2023-08-31T00:20:42;5.22;;;3.50;;
12151;SDS011;6139;51.274;7.128;2023-08-31T00:21:44;4.88;;;3.38;;
12151;SDS011;6139;51.274;7.128;2023-08-31T00:22:46;4.70;;;3.17;;
12151;SDS011;6139;51.274;7.128;2023-08-31T00:23:48;6.20;;;3.63;;
12151;SDS011;6139;51.274;7.128;2023-08-31T00:24:49;4.85;;;3.88;;
12151;SDS011;6139;51.274;7.128;2023-08-31T00:25:52;5.65;;;3.72;;
12151;SDS011;6139;51.274;7.128;2023-08-31T00:26:53;8.25;;;3.78;;
12151;SDS011;6139;51.274;7.128;2023-08-31T00:27:56;4.07;;;3.50;;
12151;SDS011;6139;51.274;7.128;2023-08-31T00:28:59;7.53;;;3.95;;
12151;SDS011;6139;51.274;7.128;2023-08-31T00:30:01;6.47;;;3.85;;
12151;SDS011;6139;51.274;7.128;2023-08-31T00:31:04;5.63;;;3.65;;
12151;SDS011;6139;51.274;7.128;2023-08-31T00:32:06;7.10;;;4.07;;
12151;SDS011;6139;51.274;7.128;2023-08-31T00:33:08;5.65;;;3.90;;
12151;SDS011;6139;51.274;7.128;2023-08-31T00:34:10;7.43;;;3.60;;
12151;SDS011;6139;51.274;7.128;2023-08-31T00:35:18;6.53;;;3.60;;
12151;SDS011;6139;51.274;7.128;2023-08-31T00:36:20;5.50;;;3.90;;
12151;SDS011;6139;51.274;7.128;2023-08-31T00:37:21;6.38;;;3.38;;
12151;SDS011;6139;51.274;7.128;2023-08-31T00:38:23;6.22;;;3.63;;
12151;SDS011;6139;51.274;7.128;2023-08-31T00:39:25;4.75;;;3.55;;
12151;SDS011;6139;51.274;7.128;2023-08-31T00:40:28;5.15;;;3.30;;
12151;SDS011;6139;51.274;7.128;2023-08-31T00:41:31;7.88;;;3.78;;
12151;SDS011;6139;51.274;7.128;2023-08-31T00:42:32;5.95;;;3.58;;
12151;SDS011;6139;51.274;7.128;2023-08-31T00:43:34;3.83;;;3.22;;
12151;SDS011;6139;51.274;7.128;2023-08-31T00:44:36;7.78;;;3.60;;
12151;SDS011;6139;51.274;7.128;2023-08-31T00:45:38;5.63;;;3.60;;
12151;SDS011;6139;51.274;7.128;2023-08-31T00:46:40;4.45;;;3.30;;
12151;SDS011;6139;51.274;7.128;2023-08-31T00:47:45;6.95;;;3.90;;
12151;SDS011;6139;51.274;7.128;2023-08-31T00:48:47;4.35;;;3.72;;
12151;SDS011;6139;51.274;7.128;2023-08-31T00:49:50;4.82;;;3.45;;
12151;SDS011;6139;51.274;7.128;2023-08-31T00:50:51;4.45;;;3.53;;
12151;SDS011;6139;51.274;7.128;2023-08-31T00:51:54;5.38;;;3.53;;
12151;SDS011;6139;51.274;7.128;2023-08-31T00:52:57;8.65;;;3.92;;
12151;SDS011;6139;51.274;7.128;2023-08-31T00:53:59;8.05;;;4.03;;
12151;SDS011;6139;51.274;7.128;2023-08-31T00:55:01;5.15;;;3.75;;
12151;SDS011;6139;51.274;7.128;2023-08-31T00:56:05;4.07;;;3.22;;
12151;SDS011;6139;51.274;7.128;2023-08-31T00:57:06;7.43;;;3.72;;
12151;SDS011;6139;51.274;7.128;2023-08-31T00:58:08;4.63;;;3.70;;
12151;SDS011;6139;51.274;7.128;2023-08-31T00:59:09;4.13;;;3.58;;
12151;SDS011;6139;51.274;7.128;2023-08-31T01:00:13;6.07;;;3.35;;
12151;SDS011;6139;51.274;7.128;2023-08-31T01:01:17;10.13;;;3.40;;
12151;SDS011;6139;51.274;7.128;2023-08-31T01:02:28;8.80;;;3.63;;
12151;SDS011;6139;51.274;7.128;2023-08-31T01:03:35;4.00;;;3.60;;
12151;SDS011;6139;51.274;7.128;2023-08-31T01:04:46;4.82;;;3.70;;
12151;SDS011;6139;51.274;7.128;2023-08-31T01:05:57;7.90;;;3.50;;
12151;SDS011;6139;51.274;7.128;2023-08-31T01:07:04;5.88;;;3.55;;
12151;SDS011;6139;51.274;7.128;2023-08-31T01:08:24;6.43;;;3.72;;
12151;SDS011;6139;51.274;7.128;2023-08-31T01:09:36;6.10;;;3.55;;
12151;SDS011;6139;51.274;7.128;2023-08-31T01:10:45;4.45;;;3.58;;
12151;SDS011;6139;51.274;7.128;2023-08-31T01:11:56;7.30;;;3.70;;
12151;SDS011;6139;51.274;7.128;2023-08-31T01:13:04;5.40;;;3.63;;
12151;SDS011;6139;51.274;7.128;2023-08-31T01:14:11;5.32;;;3.70;;
12151;SDS011;6139;51.274;7.128;2023-08-31T01:15:18;8.93;;;4.07;;
12151;SDS011;6139;51.274;7.128;2023-08-31T01:16:20;5.65;;;3.80;;
12151;SDS011;6139;51.274;7.128;2023-08-31T01:17:24;6.13;;;4.30;;
12151;SDS011;6139;51.274;7.128;2023-08-31T01:18:28;8.48;;;4.43;;
12151;SDS011;6139;51.274;7.128;2023-08-31T01:19:39;6.10;;;3.88;;
12151;SDS011;6139;51.274;7.128;2023-08-31T01:20:52;5.05;;;3.67;;
12151;SDS011;6139;51.274;7.128;2023-08-31T01:22:03;6.40;;;4.03;;
12151;SDS011;6139;51.274;7.128;2023-08-31T01:23:13;4.90;;;3.47;;
12151;SDS011;6139;51.274;7.128;2023-08-31T01:24:20;7.50;;;4.05;;
12151;SDS011;6139;51.274;7.128;2023-08-31T01:25:24;5.03;;;3.90;;
12151;SDS011;6139;51.274;7.128;2023-08-31T01:26:25;6.85;;;3.88;;
12151;SDS011;6139;51.274;7.128;2023-08-31T01:27:28;8.00;;;4.10;;
12151;SDS011;6139;51.274;7.128;2023-08-31T01:28:29;5.30;;;4.10;;
12151;SDS011;6139;51.274;7.128;2023-08-31T01:29:31;5.38;;;3.95;;
12151;SDS011;6139;51.274;7.128;2023-08-31T01:30:32;5.65;;;3.70;;
12151;SDS011;6139;51.274;7.128;2023-08-31T01:31:41;5.82;;;4.30;;
12151;SDS011;6139;51.274;7.128;2023-08-31T01:32:43;5.65;;;4.35;;
12151;SDS011;6139;51.274;7.128;2023-08-31T01:33:46;6.78;;;4.15;;
12151;SDS011;6139;51.274;7.128;2023-08-31T01:34:47;6.70;;;4.43;;
12151;SDS011;6139;51.274;7.128;2023-08-31T01:35:52;6.85;;;4.07;;
12151;SDS011;6139;51.274;7.128;2023-08-31T01:36:58;6.50;;;4.50;;
12151;SDS011;6139;51.274;7.128;2023-08-31T01:38:04;6.20;;;4.00;;
12151;SDS011;6139;51.274;7.128;2023-08-31T01:39:11;7.63;;;4.10;;
12151;SDS011;6139;51.274;7.128;2023-08-31T01:40:22;7.55;;;4.22;;
12151;SDS011;6139;51.274;7.128;2023-08-31T01:41:28;6.63;;;4.30;;
12151;SDS011;6139;51.274;7.128;2023-08-31T01:42:32;7.18;;;4.32;;
12151;SDS011;6139;51.274;7.128;2023-08-31T01:43:33;9.15;;;4.25;;
12151;SDS011;6139;51.274;7.128;2023-08-31T01:44:37;8.25;;;4.70;;
12151;SDS011;6139;51.274;7.128;2023-08-31T01:45:39;7.00;;;4.22;;
12151;SDS011;6139;51.274;7.128;2023-08-31T01:46:45;6.97;;;4.18;;
12151;SDS011;6139;51.274;7.128;2023-08-31T01:47:47;6.00;;;4.18;;
12151;SDS011;6139;51.274;7.128;2023-08-31T01:48:49;6.57;;;4.10;;
12151;SDS011;6139;51.274;7.128;2023-08-31T01:49:50;6.28;;;4.30;;
12151;SDS011;6139;51.274;7.128;2023-08-31T01:50:52;7.22;;;4.50;;
12151;SDS011;6139;51.274;7.128;2023-08-31T01:51:53;9.57;;;4.40;;
12151;SDS011;6139;51.274;7.128;2023-08-31T01:52:55;9.23;;;4.10;;
12151;SDS011;6139;51.274;7.128;2023-08-31T01:53:56;5.50;;;4.00;;
12151;SDS011;6139;51.274;7.128;2023-08-31T01:54:59;6.20;;;4.50;;
12151;SDS011;6139;51.274;7.128;2023-08-31T01:56:01;5.97;;;4.68;;
12151;SDS011;6139;51.274;7.128;2023-08-31T01:57:03;6.40;;;3.92;;
12151;SDS011;6139;51.274;7.128;2023-08-31T01:58:06;5.43;;;4.60;;
12151;SDS011;6139;51.274;7.128;2023-08-31T01:59:07;9.52;;;4.93;;
12151;SDS011;6139;51.274;7.128;2023-08-31T02:00:09;4.68;;;4.00;;
12151;SDS011;6139;51.274;7.128;2023-08-31T02:01:17;9.98;;;4.93;;
12151;SDS011;6139;51.274;7.128;2023-08-31T02:02:19;5.25;;;4.40;;
12151;SDS011;6139;51.274;7.128;2023-08-31T02:03:20;5.97;;;4.30;;
12151;SDS011;6139;51.274;7.128;2023-08-31T02:04:22;7.43;;;4.88;;
12151;SDS011;6139;51.274;7.128;2023-08-31T02:05:23;4.65;;;4.13;;
12151;SDS011;6139;51.274;7.128;2023-08-31T02:06:27;9.40;;;4.53;;
12151;SDS011;6139;51.274;7.128;2023-08-31T02:07:28;7.68;;;4.38;;
12151;SDS011;6139;51.274;7.128;2023-08-31T02:08:30;7.10;;;4.78;;
12151;SDS011;6139;51.274;7.128;2023-08-31T02:09:32;6.40;;;4.20;;
12151;SDS011;6139;51.274;7.128;2023-08-31T02:10:34;8.40;;;4.75;;
12151;SDS011;6139;51.274;7.128;2023-08-31T02:11:36;5.57;;;4.00;;
12151;SDS011;6139;51.274;7.128;2023-08-31T02:12:38;6.32;;;4.65;;
12151;SDS011;6139;51.274;7.128;2023-08-31T02:13:40;4.90;;;4.40;;
12151;SDS011;6139;51.274;7.128;2023-08-31T02:14:42;6.13;;;4.30;;
12151;SDS011;6139;51.274;7.128;2023-08-31T02:15:46;5.53;;;3.90;;
12151;SDS011;6139;51.274;7.128;2023-08-31T02:16:46;5.25;;;4.35;;
12151;SDS011;6139;51.274;7.128;2023-08-31T02:17:48;7.63;;;4.20;;
12151;SDS011;6139;51.274;7.128;2023-08-31T02:18:49;7.38;;;4.68;;
12151;SDS011;6139;51.274;7.128;2023-08-31T02:19:51;5.88;;;4.40;;
12151;SDS011;6139;51.274;7.128;2023-08-31T02:20:52;5.88;;;4.28;;
12151;SDS011;6139;51.274;7.128;2023-08-31T02:21:54;5.20;;;4.47;;
12151;SDS011;6139;51.274;7.128;2023-08-31T02:22:55;6.53;;;3.95;;
12151;SDS011;6139;51.274;7.128;2023-08-31T02:23:57;7.45;;;4.43;;
12151;SDS011;6139;51.274;7.128;2023-08-31T02:24:58;8.57;;;4.43;;
12151;SDS011;6139;51.274;7.128;2023-08-31T02:26:01;9.77;;;4.07;;
12151;SDS011;6139;51.274;7.128;2023-08-31T02:27:03;5.75;;;3.90;;
12151;SDS011;6139;51.274;7.128;2023-08-31T02:28:05;6.68;;;3.90;;
12151;SDS011;6139;51.274;7.128;2023-08-31T02:29:06;6.22;;;4.03;;
12151;SDS011;6139;51.274;7.128;2023-08-31T02:30:08;5.22;;;4.07;;
12151;SDS011;6139;51.274;7.128;2023-08-31T02:31:10;5.90;;;4.13;;
12151;SDS011;6139;51.274;7.128;2023-08-31T02:32:12;6.15;;;3.97;;
12151;SDS011;6139;51.274;7.128;2023-08-31T02:33:13;5.30;;;3.65;;
12151;SDS011;6139;51.274;7.128;2023-08-31T02:34:15;5.90;;;3.70;;
12151;SDS011;6139;51.274;7.128;2023-08-31T02:35:16;4.95;;;4.20;;
12151;SDS011;6139;51.274;7.128;2023-08-31T02:36:17;5.45;;;4.20;;
12151;SDS011;6139;51.274;7.128;2023-08-31T02:37:20;4.90;;;4.00;;
12151;SDS011;6139;51.274;7.128;2023-08-31T02:38:21;6.00;;;4.18;;
12151;SDS011;6139;51.274;7.128;2023-08-31T02:39:23;5.53;;;3.88;;
12151;SDS011;6139;51.274;7.128;2023-08-31T02:40:24;5.85;;;3.70;;
12151;SDS011;6139;51.274;7.128;2023-08-31T02:41:26;5.35;;;4.20;;
12151;SDS011;6139;51.274;7.128;2023-08-31T02:42:29;5.25;;;4.25;;
12151;SDS011;6139;51.274;7.128;2023-08-31T02:43:31;7.63;;;4.05;;
12151;SDS011;6139;51.274;7.128;2023-08-31T02:44:32;6.70;;;4.32;;
12151;SDS011;6139;51.274;7.128;2023-08-31T02:45:34;4.50;;;3.90;;
12151;SDS011;6139;51.274;7.128;2023-08-31T02:46:35;6.32;;;4.15;;
12151;SDS011;6139;51.274;7.128;2023-08-31T02:47:37;6.60;;;4.80;;
12151;SDS011;6139;51.274;7.128;2023-08-31T02:48:38;4.80;;;4.28;;
12151;SDS011;6139;51.274;7.128;2023-08-31T02:49:40;5.82;;;4.57;;
12151;SDS011;6139;51.274;7.128;2023-08-31T02:50:41;7.15;;;4.18;;
12151;SDS011;6139;51.274;7.128;2023-08-31T02:51:43;7.55;;;4.05;;
12151;SDS011;6139;51.274;7.128;2023-08-31T02:52:44;6.85;;;4.25;;
12151;SDS011;6139;51.274;7.128;2023-08-31T02:53:46;6.50;;;4.28;;
12151;SDS011;6139;51.274;7.128;2023-08-31T02:54:47;6.38;;;3.95;;
12151;SDS011;6139;51.274;7.128;2023-08-31T02:55:48;4.65;;;3.88;;
12151;SDS011;6139;51.274;7.128;2023-08-31T02:56:50;6.03;;;4.20;;
12151;SDS011;6139;51.274;7.128;2023-08-31T02:57:53;4.85;;;4.05;;
12151;SDS011;6139;51.274;7.128;2023-08-31T02:58:55;6.20;;;4.20;;
12151;SDS011;6139;51.274;7.128;2023-08-31T02:59:57;7.32;;;4.43;;
12151;SDS011;6139;51.274;7.128;2023-08-31T03:01:06;4.40;;;3.72;;
12151;SDS011;6139;51.274;7.128;2023-08-31T03:02:09;5.68;;;4.20;;
12151;SDS011;6139;51.274;7.128;2023-08-31T03:03:11;5.57;;;4.28;;
12151;SDS011;6139;51.274;7.128;2023-08-31T03:04:12;4.45;;;4.05;;
12151;SDS011;6139;51.274;7.128;2023-08-31T03:05:14;5.15;;;4.18;;
12151;SDS011;6139;51.274;7.128;2023-08-31T03:06:16;6.68;;;4.20;;
12151;SDS011;6139;51.274;7.128;2023-08-31T03:07:17;7.07;;;4.07;;
12151;SDS011;6139;51.274;7.128;2023-08-31T03:08:21;7.32;;;4.07;;
12151;SDS011;6139;51.274;7.128;2023-08-31T03:09:22;4.82;;;3.78;;
12151;SDS011;6139;51.274;7.128;2023-08-31T03:10:24;5.00;;;4.28;;
12151;SDS011;6139;51.274;7.128;2023-08-31T03:11:25;5.05;;;3.95;;
12151;SDS011;6139;51.274;7.128;2023-08-31T03:12:27;7.22;;;4.20;;
12151;SDS011;6139;51.274;7.128;2023-08-31T03:13:30;4.80;;;3.88;;
12151;SDS011;6139;51.274;7.128;2023-08-31T03:14:31;5.50;;;4.15;;
12151;SDS011;6139;51.274;7.128;2023-08-31T03:15:33;6.05;;;4.25;;
12151;SDS011;6139;51.274;7.128;2023-08-31T03:16:34;5.30;;;3.70;;
12151;SDS011;6139;51.274;7.128;2023-08-31T03:17:37;6.63;;;4.50;;
12151;SDS011;6139;51.274;7.128;2023-08-31T03:18:38;5.25;;;3.85;;
12151;SDS011;6139;51.274;7.128;2023-08-31T03:19:41;4.78;;;3.97;;
12151;SDS011;6139;51.274;7.128;2023-08-31T03:20:42;5.75;;;3.92;;
12151;SDS011;6139;51.274;7.128;2023-08-31T03:21:43;6.88;;;4.07;;
12151;SDS011;6139;51.274;7.128;2023-08-31T03:22:45;6.85;;;4.35;;
12151;SDS011;6139;51.274;7.128;2023-08-31T03:23:46;5.10;;;4.15;;
12151;SDS011;6139;51.274;7.128;2023-08-31T03:24:47;4.45;;;3.83;;
12151;SDS011;6139;51.274;7.128;2023-08-31T03:25:49;6.03;;;4.35;;
12151;SDS011;6139;51.274;7.128;2023-08-31T03:26:50;5.32;;;4.38;;
12151;SDS011;6139;51.274;7.128;2023-08-31T03:27:51;6.20;;;4.22;;
12151;SDS011;6139;51.274;7.128;2023-08-31T03:28:55;6.47;;;4.70;;
12151;SDS011;6139;51.274;7.128;2023-08-31T03:29:56;5.88;;;4.90;;
12151;SDS011;6139;51.274;7.128;2023-08-31T03:30:58;5.40;;;4.82;;
12151;SDS011;6139;51.274;7.128;2023-08-31T03:31:59;5.28;;;4.70;;
12151;SDS011;6139;51.274;7.128;2023-08-31T03:33:01;8.65;;;4.78;;
12151;SDS011;6139;51.274;7.128;2023-08-31T03:34:03;6.20;;;4.30;;
12151;SDS011;6139;51.274;7.128;2023-08-31T03:35:06;5.38;;;4.45;;
12151;SDS011;6139;51.274;7.128;2023-08-31T03:36:07;5.78;;;4.63;;
12151;SDS011;6139;51.274;7.128;2023-08-31T03:37:10;6.03;;;4.78;;
12151;SDS011;6139;51.274;7.128;2023-08-31T03:38:12;6.43;;;4.35;;
12151;SDS011;6139;51.274;7.128;2023-08-31T03:39:14;6.40;;;4.35;;
12151;SDS011;6139;51.274;7.128;2023-08-31T03:40:16;6.65;;;4.97;;
12151;SDS011;6139;51.274;7.128;2023-08-31T03:41:18;5.88;;;4.60;;
12151;SDS011;6139;51.274;7.128;2023-08-31T03:42:19;5.43;;;4.25;;
12151;SDS011;6139;51.274;7.128;2023-08-31T03:43:21;6.00;;;4.28;;
12151;SDS011;6139;51.274;7.128;2023-08-31T03:44:23;4.75;;;4.22;;
12151;SDS011;6139;51.274;7.128;2023-08-31T03:45:25;6.63;;;4.07;;
12151;SDS011;6139;51.274;7.128;2023-08-31T03:46:26;5.68;;;4.22;;
12151;SDS011;6139;51.274;7.128;2023-08-31T03:47:28;7.43;;;4.03;;
12151;SDS011;6139;51.274;7.128;2023-08-31T03:48:30;5.70;;;4.25;;
12151;SDS011;6139;51.274;7.128;2023-08-31T03:49:32;8.05;;;4.32;;
12151;SDS011;6139;51.274;7.128;2023-08-31T03:50:33;5.65;;;4.13;;
12151;SDS011;6139;51.274;7.128;2023-08-31T03:51:35;5.18;;;4.13;;
12151;SDS011;6139;51.274;7.128;2023-08-31T03:52:37;4.70;;;4.30;;
12151;SDS011;6139;51.274;7.128;2023-08-31T03:53:38;4.70;;;4.03;;
12151;SDS011;6139;51.274;7.128;2023-08-31T03:54:40;5.00;;;3.97;;
12151;SDS011;6139;51.274;7.128;2023-08-31T03:55:41;6.40;;;3.80;;
12151;SDS011;6139;51.274;7.128;2023-08-31T03:56:43;7.03;;;4.38;;
12151;SDS011;6139;51.274;7.128;2023-08-31T03:57:46;5.80;;;4.25;;
12151;SDS011;6139;51.274;7.128;2023-08-31T03:58:52;6.45;;;4.25;;
12151;SDS011;6139;51.274;7.128;2023-08-31T03:59:55;6.43;;;4.60;;
12151;SDS011;6139;51.274;7.128;2023-08-31T04:00:57;4.70;;;4.30;;
12151;SDS011;6139;51.274;7.128;2023-08-31T04:01:58;4.75;;;4.20;;
12151;SDS011;6139;51.274;7.128;2023-08-31T04:03:02;7.82;;;4.45;;
12151;SDS011;6139;51.274;7.128;2023-08-31T04:04:04;5.60;;;4.53;;
12151;SDS011;6139;51.274;7.128;2023-08-31T04:05:06;9.13;;;5.00;;
12151;SDS011;6139;51.274;7.128;2023-08-31T04:06:09;6.43;;;4.75;;
12151;SDS011;6139;51.274;7.128;2023-08-31T04:07:14;7.45;;;5.07;;
12151;SDS011;6139;51.274;7.128;2023-08-31T04:08:16;4.93;;;4.43;;
12151;SDS011;6139;51.274;7.128;2023-08-31T04:09:18;5.15;;;4.32;;
12151;SDS011;6139;51.274;7.128;2023-08-31T04:10:19;6.05;;;4.80;;
12151;SDS011;6139;51.274;7.128;2023-08-31T04:11:21;5.72;;;4.90;;
12151;SDS011;6139;51.274;7.128;2023-08-31T04:12:22;7.28;;;5.93;;
12151;SDS011;6139;51.274;7.128;2023-08-31T04:13:26;6.70;;;5.63;;
12151;SDS011;6139;51.274;7.128;2023-08-31T04:14:27;7.72;;;5.93;;
12151;SDS011;6139;51.274;7.128;2023-08-31T04:15:31;6.85;;;5.75;;
12151;SDS011;6139;51.274;7.128;2023-08-31T04:16:32;8.65;;;7.40;;
12151;SDS011;6139;51.274;7.128;2023-08-31T04:17:34;8.18;;;6.30;;
12151;SDS011;6139;51.274;7.128;2023-08-31T04:18:35;7.35;;;6.38;;
12151;SDS011;6139;51.274;7.128;2023-08-31T04:19:37;7.25;;;6.40;;
12151;SDS011;6139;51.274;7.128;2023-08-31T04:20:45;8.30;;;6.53;;
12151;SDS011;6139;51.274;7.128;2023-08-31T04:21:49;8.18;;;7.10;;
12151;SDS011;6139;51.274;7.128;2023-08-31T04:22:50;8.95;;;7.22;;
12151;SDS011;6139;51.274;7.128;2023-08-31T04:23:52;9.45;;;8.25;;
12151;SDS011;6139;51.274;7.128;2023-08-31T04:24:53;9.27;;;7.90;;
12151;SDS011;6139;51.274;7.128;2023-08-31T04:25:55;11.15;;;8.07;;
12151;SDS011;6139;51.274;7.128;2023-08-31T04:26:58;12.27;;;7.97;;
12151;SDS011;6139;51.274;7.128;2023-08-31T04:27:59;11.60;;;8.43;;
12151;SDS011;6139;51.274;7.128;2023-08-31T04:29:01;9.32;;;8.32;;
12151;SDS011;6139;51.274;7.128;2023-08-31T04:30:03;11.40;;;8.43;;
12151;SDS011;6139;51.274;7.128;2023-08-31T04:31:07;14.80;;;7.78;;
12151;SDS011;6139;51.274;7.128;2023-08-31T04:32:09;12.05;;;8.45;;
12151;SDS011;6139;51.274;7.128;2023-08-31T04:33:10;14.18;;;9.27;;
12151;SDS011;6139;51.274;7.128;2023-08-31T04:34:12;10.77;;;9.23;;
12151;SDS011;6139;51.274;7.128;2023-08-31T04:35:13;10.20;;;8.45;;
12151;SDS011;6139;51.274;7.128;2023-08-31T04:36:15;14.20;;;9.43;;
12151;SDS011;6139;51.274;7.128;2023-08-31T04:37:16;11.25;;;9.70;;
12151;SDS011;6139;51.274;7.128;2023-08-31T04:38:16;13.23;;;8.05;;
12151;SDS011;6139;51.274;7.128;2023-08-31T04:39:18;9.55;;;8.55;;
12151;SDS011;6139;51.274;7.128;2023-08-31T04:40:19;10.00;;;8.40;;
12151;SDS011;6139;51.274;7.128;2023-08-31T04:41:21;10.15;;;8.73;;
12151;SDS011;6139;51.274;7.128;2023-08-31T04:42:22;11.98;;;9.05;;
12151;SDS011;6139;51.274;7.128;2023-08-31T04:43:24;11.23;;;9.50;;
12151;SDS011;6139;51.274;7.128;2023-08-31T04:44:25;10.75;;;9.13;;
12151;SDS011;6139;51.274;7.128;2023-08-31T04:45:27;12.40;;;9.15;;
12151;SDS011;6139;51.274;7.128;2023-08-31T04:46:30;10.90;;;9.55;;
12151;SDS011;6139;51.274;7.128;2023-08-31T04:47:31;13.50;;;9.93;;
12151;SDS011;6139;51.274;7.128;2023-08-31T04:48:33;10.20;;;8.82;;
12151;SDS011;6139;51.274;7.128;2023-08-31T04:49:34;10.60;;;9.10;;
12151;SDS011;6139;51.274;7.128;2023-08-31T04:50:36;11.40;;;9.57;;
12151;SDS011;6139;51.274;7.128;2023-08-31T04:51:36;11.38;;;8.75;;
12151;SDS011;6139;51.274;7.128;2023-08-31T04:52:39;10.95;;;8.07;;
12151;SDS011;6139;51.274;7.128;2023-08-31T04:53:40;11.55;;;8.73;;
12151;SDS011;6139;51.274;7.128;2023-08-31T04:54:42;12.88;;;8.68;;
12151;SDS011;6139;51.274;7.128;2023-08-31T04:55:43;10.80;;;8.60;;
12151;SDS011;6139;51.274;7.128;2023-08-31T04:56:45;11.85;;;8.80;;
12151;SDS011;6139;51.274;7.128;2023-08-31T04:57:46;9.20;;;8.10;;
12151;SDS011;6139;51.274;7.128;2023-08-31T04:58:47;11.43;;;8.07;;
12151;SDS011;6139;51.274;7.128;2023-08-31T04:59:49;11.02;;;8.77;;
12151;SDS011;6139;51.274;7.128;2023-08-31T05:00:51;10.18;;;8.02;;
12151;SDS011;6139;51.274;7.128;2023-08-31T05:01:54;10.75;;;7.72;;
12151;SDS011;6139;51.274;7.128;2023-08-31T05:02:55;11.25;;;7.75;;
12151;SDS011;6139;51.274;7.128;2023-08-31T05:03:56;9.57;;;8.07;;
12151;SDS011;6139;51.274;7.128;2023-08-31T05:04:59;9.30;;;7.95;;
12151;SDS011;6139;51.274;7.128;2023-08-31T05:06:00;9.15;;;7.20;;
12151;SDS011;6139;51.274;7.128;2023-08-31T05:07:04;9.27;;;7.55;;
12151;SDS011;6139;51.274;7.128;2023-08-31T05:08:05;8.60;;;6.50;;
12151;SDS011;6139;51.274;7.128;2023-08-31T05:09:08;9.25;;;7.55;;
12151;SDS011;6139;51.274;7.128;2023-08-31T05:10:10;9.30;;;7.72;;
12151;SDS011;6139;51.274;7.128;2023-08-31T05:11:12;8.18;;;7.18;;
12151;SDS011;6139;51.274;7.128;2023-08-31T05:12:13;8.63;;;7.72;;
12151;SDS011;6139;51.274;7.128;2023-08-31T05:13:15;10.10;;;7.32;;
12151;SDS011;6139;51.274;7.128;2023-08-31T05:14:15;10.65;;;7.43;;
12151;SDS011;6139;51.274;7.128;2023-08-31T05:15:17;9.90;;;6.97;;
12151;SDS011;6139;51.274;7.128;2023-08-31T05:16:18;8.70;;;7.15;;
12151;SDS011;6139;51.274;7.128;2023-08-31T05:17:22;10.38;;;7.07;;
12151;SDS011;6139;51.274;7.128;2023-08-31T05:18:23;9.35;;;7.18;;
12151;SDS011;6139;51.274;7.128;2023-08-31T05:19:25;9.20;;;6.80;;
12151;SDS011;6139;51.274;7.128;2023-08-31T05:20:26;9.27;;;7.15;;
12151;SDS011;6139;51.274;7.128;2023-08-31T05:21:28;9.35;;;7.05;;
12151;SDS011;6139;51.274;7.128;2023-08-31T05:22:29;8.52;;;6.60;;
12151;SDS011;6139;51.274;7.128;2023-08-31T05:23:31;8.73;;;6.95;;
12151;SDS011;6139;51.274;7.128;2023-08-31T05:24:32;9.77;;;7.18;;
12151;SDS011;6139;51.274;7.128;2023-08-31T05:25:33;8.75;;;6.70;;
12151;SDS011;6139;51.274;7.128;2023-08-31T05:26:35;11.23;;;7.07;;
12151;SDS011;6139;51.274;7.128;2023-08-31T05:27:37;8.25;;;7.05;;
12151;SDS011;6139;51.274;7.128;2023-08-31T05:28:38;10.02;;;6.93;;
12151;SDS011;6139;51.274;7.128;2023-08-31T05:29:39;8.65;;;7.00;;
12151;SDS011;6139;51.274;7.128;2023-08-31T05:30:47;8.05;;;7.15;;
12151;SDS011;6139;51.274;7.128;2023-08-31T05:31:51;7.60;;;6.78;;
12151;SDS011;6139;51.274;7.128;2023-08-31T05:32:53;10.48;;;6.88;;
12151;SDS011;6139;51.274;7.128;2023-08-31T05:33:55;7.30;;;6.60;;
12151;SDS011;6139;51.274;7.128;2023-08-31T05:34:56;9.13;;;6.63;;
12151;SDS011;6139;51.274;7.128;2023-08-31T05:36:00;7.97;;;5.93;;
12151;SDS011;6139;51.274;7.128;2023-08-31T05:37:02;8.95;;;6.45;;
12151;SDS011;6139;51.274;7.128;2023-08-31T05:38:05;7.22;;;6.10;;
12151;SDS011;6139;51.274;7.128;2023-08-31T05:39:05;8.20;;;6.45;;
12151;SDS011;6139;51.274;7.128;2023-08-31T05:40:08;7.88;;;7.05;;
12151;SDS011;6139;51.274;7.128;2023-08-31T05:41:10;7.78;;;6.30;;
12151;SDS011;6139;51.274;7.128;2023-08-31T05:42:12;7.70;;;6.30;;
12151;SDS011;6139;51.274;7.128;2023-08-31T05:43:13;6.88;;;6.22;;
12151;SDS011;6139;51.274;7.128;2023-08-31T05:44:15;8.40;;;6.20;;
12151;SDS011;6139;51.274;7.128;2023-08-31T05:45:17;6.55;;;5.75;;
12151;SDS011;6139;51.274;7.128;2023-08-31T05:46:19;7.65;;;6.05;;
12151;SDS011;6139;51.274;7.128;2023-08-31T05:47:20;7.80;;;5.82;;
12151;SDS011;6139;51.274;7.128;2023-08-31T05:48:23;7.07;;;6.03;;
12151;SDS011;6139;51.274;7.128;2023-08-31T05:49:24;7.75;;;6.35;;
12151;SDS011;6139;51.274;7.128;2023-08-31T05:50:26;6.53;;;5.93;;
12151;SDS011;6139;51.274;7.128;2023-08-31T05:51:27;7.55;;;5.93;;
12151;SDS011;6139;51.274;7.128;2023-08-31T05:52:29;6.85;;;5.90;;
12151;SDS011;6139;51.274;7.128;2023-08-31T05:53:30;7.45;;;6.28;;
12151;SDS011;6139;51.274;7.128;2023-08-31T05:54:32;7.13;;;6.43;;
12151;SDS011;6139;51.274;7.128;2023-08-31T05:55:33;7.32;;;6.63;;
12151;SDS011;6139;51.274;7.128;2023-08-31T05:56:35;8.60;;;6.78;;
12151;SDS011;6139;51.274;7.128;2023-08-31T05:57:36;6.78;;;6.07;;
12151;SDS011;6139;51.274;7.128;2023-08-31T05:58:38;8.90;;;6.60;;
12151;SDS011;6139;51.274;7.128;2023-08-31T05:59:39;8.68;;;6.40;;
12151;SDS011;6139;51.274;7.128;2023-08-31T06:00:41;9.38;;;6.93;;
12151;SDS011;6139;51.274;7.128;2023-08-31T06:01:42;10.18;;;7.05;;
12151;SDS011;6139;51.274;7.128;2023-08-31T06:02:45;8.60;;;6.93;;
12151;SDS011;6139;51.274;7.128;2023-08-31T06:03:47;8.55;;;6.43;;
12151;SDS011;6139;51.274;7.128;2023-08-31T06:04:49;8.00;;;7.25;;
12151;SDS011;6139;51.274;7.128;2023-08-31T06:05:50;8.80;;;7.38;;
12151;SDS011;6139;51.274;7.128;2023-08-31T06:06:52;10.77;;;6.97;;
12151;SDS011;6139;51.274;7.128;2023-08-31T06:07:54;7.40;;;6.68;;
12151;SDS011;6139;51.274;7.128;2023-08-31T06:08:56;9.55;;;7.13;;
12151;SDS011;6139;51.274;7.128;2023-08-31T06:09:58;8.02;;;7.22;;
12151;SDS011;6139;51.274;7.128;2023-08-31T06:11:00;8.27;;;7.00;;
12151;SDS011;6139;51.274;7.128;2023-08-31T06:12:01;7.85;;;7.03;;
12151;SDS011;6139;51.274;7.128;2023-08-31T06:13:03;8.32;;;6.55;;
12151;SDS011;6139;51.274;7.128;2023-08-31T06:14:04;10.10;;;7.18;;
12151;SDS011;6139;51.274;7.128;2023-08-31T06:15:07;7.63;;;6.85;;
12151;SDS011;6139;51.274;7.128;2023-08-31T06:16:08;8.85;;;7.07;;
12151;SDS011;6139;51.274;7.128;2023-08-31T06:17:10;12.00;;;8.07;;
12151;SDS011;6139;51.274;7.128;2023-08-31T06:18:13;10.73;;;6.63;;
12151;SDS011;6139;51.274;7.128;2023-08-31T06:19:16;7.45;;;6.72;;
12151;SDS011;6139;51.274;7.128;2023-08-31T06:20:18;9.38;;;7.38;;
12151;SDS011;6139;51.274;7.128;2023-08-31T06:21:19;7.35;;;6.65;;